Time;durP1;ratioP1;P1;durP2;ratioP2;P2;SDS_P1;SDS_P2;PMS_P1;PMS_P2;Temp;Humidity;BMP_temperature;BMP_pressure;BME280_temperature;BME280_humidity;BME280_pressure;Samples;Min_cycle;Max_cycle;Signal;HPM_P1;HPM_P2
2023/08/08 00:03:15;;;;;;;5.68;2.17;;;;;;;13.88;100.00;99833.22;12205247;19;20461;-83
2023/08/08 00:07:17;;;;;;;4.63;2.08;;;;;;;13.89;100.00;99832.13;12196765;19;20014;-85
2023/08/08 00:11:19;;;;;;;3.67;1.80;;;;;;;13.93;100.00;99835.19;12203902;19;20066;-83
2023/08/08 00:15:21;;;;;;;3.97;2.03;;;;;;;13.94;100.00;99828.53;12218382;19;20014;-83
2023/08/08 00:19:22;;;;;;;6.10;1.90;;;;;;;13.93;100.00;99828.81;12192514;19;20080;-82
2023/08/08 00:23:24;;;;;;;4.57;1.77;;;;;;;13.92;100.00;99830.75;12217004;19;20023;-84
2023/08/08 00:27:26;;;;;;;3.10;1.75;;;;;;;13.95;100.00;99821.06;12213314;19;20007;-83
2023/08/08 00:31:28;;;;;;;4.75;2.00;;;;;;;13.96;100.00;99820.78;12196044;19;20041;-83
2023/08/08 00:35:29;;;;;;;5.15;2.53;;;;;;;13.96;100.00;99823.56;12210512;19;20003;-83
2023/08/08 00:39:31;;;;;;;6.90;2.50;;;;;;;13.91;100.00;99810.50;12214774;19;20007;-82
2023/08/08 00:43:33;;;;;;;2.72;1.83;;;;;;;13.87;100.00;99812.19;12191421;19;20014;-83
2023/08/08 00:47:35;;;;;;;5.72;2.30;;;;;;;13.84;100.00;99821.03;12207098;19;20011;-84
2023/08/08 00:51:38;;;;;;;6.20;2.33;;;;;;;13.82;100.00;99811.31;12220296;19;20007;-84
2023/08/08 00:55:39;;;;;;;5.50;2.80;;;;;;;13.83;100.00;99813.84;12190267;19;20039;-83
2023/08/08 00:59:41;;;;;;;6.13;1.83;;;;;;;13.84;100.00;99803.59;12211198;19;20006;-82
2023/08/08 01:03:43;;;;;;;3.60;2.08;;;;;;;13.82;100.00;99805.78;12213363;19;20019;-84
2023/08/08 01:08:00;;;;;;;5.45;2.00;;;;;;;13.81;100.00;99815.19;12190278;19;20011;-82
2023/08/08 01:12:05;;;;;;;3.97;2.53;;;;;;;13.74;100.00;99803.53;12213080;19;20010;-82
2023/08/08 01:16:07;;;;;;;3.58;2.00;;;;;;;13.67;100.00;99807.38;12187562;19;20010;-82
2023/08/08 01:20:12;;;;;;;5.22;1.80;;;;;;;13.59;100.00;99807.06;12213866;19;20014;-82
2023/08/08 01:24:18;;;;;;;4.15;2.17;;;;;;;13.50;100.00;99798.44;12212199;19;20474;-82
2023/08/08 01:28:23;;;;;;;4.78;1.80;;;;;;;13.39;100.00;99792.03;12214643;19;21396;-84
2023/08/08 01:32:25;;;;;;;4.82;2.20;;;;;;;13.34;100.00;99797.53;12211309;19;20025;-81
2023/08/08 01:36:51;;;;;;;4.70;2.20;;;;;;;13.35;100.00;99803.91;12212145;19;20018;-81
2023/08/08 01:40:56;;;;;;;2.80;2.00;;;;;;;13.39;100.00;99799.50;12187974;19;20018;-83
2023/08/08 01:44:59;;;;;;;4.63;1.85;;;;;;;13.43;100.00;99800.63;12210824;19;20383;-84
2023/08/08 01:49:02;;;;;;;4.88;2.10;;;;;;;13.43;100.00;99797.84;12192822;19;20045;-83
2023/08/08 01:53:04;;;;;;;7.17;3.17;;;;;;;13.44;100.00;99805.06;12211923;19;20049;-84
2023/08/08 01:57:06;;;;;;;4.63;1.92;;;;;;;13.45;100.00;99799.25;12207943;19;20018;-83
2023/08/08 02:01:08;;;;;;;8.65;2.50;;;;;;;13.42;100.00;99793.44;12190269;19;20006;-82
2023/08/08 02:05:10;;;;;;;3.38;2.10;;;;;;;13.33;100.00;99793.13;12196625;19;20014;-84
2023/08/08 02:09:14;;;;;;;4.38;2.05;;;;;;;13.22;100.00;99802.41;12215325;19;20027;-82
2023/08/08 02:13:16;;;;;;;3.22;1.98;;;;;;;13.11;100.00;99809.81;12187525;19;20035;-79
2023/08/08 02:17:18;;;;;;;3.53;2.05;;;;;;;13.08;100.00;99796.50;12203715;19;20736;-82
2023/08/08 02:21:20;;;;;;;5.03;2.00;;;;;;;13.04;100.00;99800.94;12210536;19;20010;-83
2023/08/08 02:25:24;;;;;;;4.40;2.10;;;;;;;12.97;100.00;99786.50;12193363;19;20007;-82
2023/08/08 02:29:26;;;;;;;5.57;2.53;;;;;;;12.86;100.00;99787.53;12213982;19;20007;-83
2023/08/08 02:33:27;;;;;;;3.65;2.10;;;;;;;12.71;100.00;99791.84;12214599;19;20357;-84
2023/08/08 02:37:29;;;;;;;5.25;2.08;;;;;;;12.59;100.00;99784.84;12191079;19;20017;-82
2023/08/08 02:41:31;;;;;;;4.10;1.85;;;;;;;12.47;100.00;99790.53;12213336;19;20002;-83
2023/08/08 02:45:33;;;;;;;4.30;2.40;;;;;;;12.36;100.00;99789.59;12214286;19;20020;-82
2023/08/08 02:49:35;;;;;;;5.47;2.55;;;;;;;12.24;100.00;99775.13;12194016;19;20006;-84
2023/08/08 02:53:37;;;;;;;7.72;2.50;;;;;;;12.15;100.00;99776.69;12215145;19;20462;-83
2023/08/08 02:57:39;;;;;;;7.18;2.50;;;;;;;12.05;100.00;99766.38;12215168;19;20375;-84
2023/08/08 03:01:41;;;;;;;4.22;2.08;;;;;;;12.01;100.00;99774.31;12191537;19;20038;-84
2023/08/08 03:05:50;;;;;;;4.45;2.42;;;;;;;11.95;100.00;99767.09;12214938;19;20011;-83
2023/08/08 03:09:54;;;;;;;4.68;2.40;;;;;;;11.90;100.00;99774.47;12193292;19;20033;-83
2023/08/08 03:13:56;;;;;;;4.45;2.50;;;;;;;11.83;100.00;99778.25;12213904;19;20654;-82
2023/08/08 03:17:59;;;;;;;8.27;2.55;;;;;;;11.78;100.00;99767.16;12212253;19;20024;-83
2023/08/08 03:22:01;;;;;;;3.47;2.20;;;;;;;11.75;100.00;99780.63;12191994;19;20125;-82
2023/08/08 03:26:04;;;;;;;8.27;2.83;;;;;;;11.70;100.00;99778.66;12215469;19;20018;-84
2023/08/08 03:30:06;;;;;;;5.22;2.22;;;;;;;11.66;100.00;99783.03;12219769;19;20070;-83
2023/08/08 03:34:14;;;;;;;6.55;3.08;;;;;;;11.62;100.00;99771.66;12202530;19;20006;-81
2023/08/08 03:38:16;;;;;;;4.10;2.23;;;;;;;11.58;100.00;99778.78;12211727;19;20011;-83
2023/08/08 03:42:19;;;;;;;6.32;2.40;;;;;;;11.57;100.00;99779.03;12211988;19;20009;-82
2023/08/08 03:46:21;;;;;;;4.40;2.33;;;;;;;11.54;100.00;99782.31;12189623;19;20025;-82
2023/08/08 03:50:23;;;;;;;5.03;2.38;;;;;;;11.52;100.00;99781.75;12215006;19;20494;-84
2023/08/08 03:54:25;;;;;;;7.43;2.10;;;;;;;11.48;100.00;99794.38;12211790;19;20474;-83
2023/08/08 03:58:27;;;;;;;5.07;2.43;;;;;;;11.44;100.00;99785.78;12190841;19;20031;-83
2023/08/08 04:02:29;;;;;;;4.93;2.40;;;;;;;11.43;100.00;99781.38;12211120;19;20010;-83
2023/08/08 04:06:31;;;;;;;7.03;2.65;;;;;;;11.41;100.00;99781.59;12213691;19;20010;-84
2023/08/08 04:10:33;;;;;;;5.87;2.20;;;;;;;11.40;100.00;99779.13;12191840;19;20011;-82
2023/08/08 04:14:35;;;;;;;4.25;2.22;;;;;;;11.39;100.00;99775.53;12245663;19;20026;-81
2023/08/08 04:18:37;;;;;;;7.13;2.40;;;;;;;11.40;100.00;99779.13;12235801;19;20014;-81
2023/08/08 04:22:39;;;;;;;6.88;2.88;;;;;;;11.41;100.00;99769.75;12196498;19;20014;-84
2023/08/08 04:26:40;;;;;;;6.55;2.20;;;;;;;11.44;100.00;99776.69;12211421;19;20014;-86
2023/08/08 04:30:42;;;;;;;9.20;2.90;;;;;;;11.44;100.00;99790.47;12211435;19;20006;-85
2023/08/08 04:34:44;;;;;;;5.30;2.87;;;;;;;11.44;100.00;99790.47;12189234;19;20028;-85
2023/08/08 04:38:47;;;;;;;4.43;2.40;;;;;;;11.47;100.00;99790.78;12207083;19;20465;-84
2023/08/08 04:42:49;;;;;;;6.50;3.22;;;;;;;11.48;100.00;99789.72;12208648;19;20014;-84
2023/08/08 04:46:51;;;;;;;4.78;1.92;;;;;;;11.48;100.00;99786.09;12187449;19;20018;-85
2023/08/08 04:50:52;;;;;;;5.47;2.70;;;;;;;11.50;100.00;99783.94;12222508;19;20015;-85
2023/08/08 04:54:54;;;;;;;6.60;2.47;;;;;;;11.51;100.00;99793.88;12197823;19;20121;-83
2023/08/08 04:58:56;;;;;;;5.55;2.60;;;;;;;11.54;100.00;99788.69;12217765;19;20007;-84
2023/08/08 05:02:58;;;;;;;5.78;2.78;;;;;;;11.57;100.00;99779.03;12218949;19;20018;-85
2023/08/08 05:07:00;;;;;;;10.05;2.92;;;;;;;11.62;100.00;99773.59;12193845;19;20023;-82
2023/08/08 05:11:02;;;;;;;7.85;2.67;;;;;;;11.67;100.00;99781.09;12220068;19;20021;-85
2023/08/08 05:15:05;;;;;;;4.73;2.13;;;;;;;11.70;100.00;99766.78;12222233;19;20019;-85
2023/08/08 05:19:07;;;;;;;4.80;2.38;;;;;;;11.74;100.00;99768.75;12197747;19;20347;-86
2023/08/08 05:23:09;;;;;;;5.90;2.45;;;;;;;11.82;100.00;99764.72;12221160;19;20076;-84
2023/08/08 05:27:11;;;;;;;5.22;2.45;;;;;;;11.90;100.00;99767.06;12219173;19;20014;-85
2023/08/08 05:31:13;;;;;;;5.50;2.77;;;;;;;11.98;100.00;99772.09;12200536;19;20212;-86
2023/08/08 05:35:15;;;;;;;6.38;2.53;;;;;;;12.04;100.00;99770.22;12219613;19;20011;-86
2023/08/08 05:39:17;;;;;;;4.40;2.17;;;;;;;12.11;100.00;99773.63;12218371;19;20498;-83
2023/08/08 05:43:20;;;;;;;6.07;2.40;;;;;;;12.21;100.00;99770.94;12199388;19;20049;-86
2023/08/08 05:47:22;;;;;;;4.65;2.33;;;;;;;12.37;100.00;99771.06;12225349;19;20014;-81
2023/08/08 05:51:24;;;;;;;5.43;2.35;;;;;;;12.47;100.00;99768.41;12259975;19;20014;-83
2023/08/08 05:55:26;;;;;;;6.07;2.43;;;;;;;12.60;100.00;99761.59;12226643;19;20657;-81
2023/08/08 05:59:28;;;;;;;7.80;2.47;;;;;;;12.72;100.00;99767.78;12255182;19;20003;-82
2023/08/08 06:03:30;;;;;;;9.40;2.53;;;;;;;12.80;100.00;99780.28;12238190;19;20133;-84
2023/08/08 06:07:32;;;;;;;5.25;2.13;;;;;;;12.91;100.00;99784.78;12195809;19;20010;-85
2023/08/08 06:11:34;;;;;;;6.90;2.15;;;;;;;13.01;100.00;99779.31;12218853;19;20024;-85
2023/08/08 06:15:36;;;;;;;6.22;2.03;;;;;;;13.20;100.00;99780.53;12217786;19;20026;-85
2023/08/08 06:19:38;;;;;;;3.88;1.83;;;;;;;13.35;100.00;99779.81;12193876;19;20026;-84
2023/08/08 06:23:40;;;;;;;7.75;2.20;;;;;;;13.42;100.00;99783.19;12216040;19;20002;-86
2023/08/08 06:27:42;;;;;;;10.52;2.60;;;;;;;13.54;100.00;99785.75;12213759;19;20020;-83
2023/08/08 06:31:44;;;;;;;4.18;2.22;;;;;;;13.66;100.00;99786.34;12188923;19;20006;-85
2023/08/08 06:35:47;;;;;;;5.82;2.40;;;;;;;13.80;100.00;99794.13;12207131;19;20059;-84
2023/08/08 06:39:50;;;;;;;6.75;2.30;;;;;;;13.91;100.00;99788.34;12208197;19;20047;-85
2023/08/08 06:43:53;;;;;;;7.30;2.40;;;;;;;14.03;100.00;99784.50;12212625;19;20030;-86
2023/08/08 06:47:54;;;;;;;5.93;2.13;;;;;;;14.18;100.00;99780.94;12213369;19;20867;-84
2023/08/08 06:51:56;;;;;;;4.05;2.25;;;;;;;14.39;100.00;99774.31;12193008;19;20007;-83
2023/08/08 06:55:58;;;;;;;5.23;1.90;;;;;;;14.58;100.00;99758.00;12214236;19;20114;-84
2023/08/08 07:00:00;;;;;;;5.47;2.55;;;;;;;14.75;100.00;99772.44;12215503;19;20263;-85
2023/08/08 07:04:02;;;;;;;3.72;2.25;;;;;;;14.91;100.00;99770.47;12192238;19;20019;-84
2023/08/08 07:08:03;;;;;;;7.75;2.25;;;;;;;14.98;100.00;99773.78;12212151;19;20447;-84
2023/08/08 07:12:05;;;;;;;4.82;1.90;;;;;;;15.08;100.00;99767.41;12213955;19;20062;-86
2023/08/08 07:16:07;;;;;;;5.17;2.33;;;;;;;15.34;100.00;99764.53;12189564;19;20007;-86
2023/08/08 07:20:13;;;;;;;4.15;2.08;;;;;;;15.60;100.00;99762.50;12212672;19;20019;-85
2023/08/08 07:24:16;;;;;;;6.50;2.10;;;;;;;15.86;100.00;99766.03;12212255;19;20018;-86
2023/08/08 07:28:18;;;;;;;5.53;2.22;;;;;;;16.14;100.00;99767.25;12190704;19;20024;-87
2023/08/08 07:32:20;;;;;;;4.55;1.92;;;;;;;16.32;100.00;99761.00;12230392;19;20022;-88
2023/08/08 07:36:22;;;;;;;5.15;2.00;;;;;;;16.48;100.00;99770.06;12212231;19;20023;-86
2023/08/08 07:40:24;;;;;;;6.35;2.15;;;;;;;16.81;100.00;99768.41;12192309;19;20051;-84
2023/08/08 07:44:25;;;;;;;7.40;2.10;;;;;;;17.07;100.00;99755.09;12212254;19;20018;-81
2023/08/08 07:48:27;;;;;;;5.95;1.90;;;;;;;17.31;100.00;99762.59;12212924;19;20007;-82
2023/08/08 07:52:29;;;;;;;3.85;1.95;;;;;;;17.73;100.00;99764.63;12177209;19;20013;-84
2023/08/08 07:56:31;;;;;;;3.92;1.80;;;;;;;18.06;99.83;99750.81;12215090;19;20344;-84
2023/08/08 08:00:33;;;;;;;6.50;1.75;;;;;;;18.28;98.04;99755.78;12212975;19;20010;-82
2023/08/08 08:04:35;;;;;;;3.33;1.50;;;;;;;18.27;96.05;99756.09;12192265;19;20010;-81
2023/08/08 08:08:37;;;;;;;3.05;1.50;;;;;;;18.18;94.59;99751.19;12212515;19;20084;-83
2023/08/08 08:12:41;;;;;;;4.85;1.60;;;;;;;18.22;94.16;99746.66;12214777;19;20353;-81
2023/08/08 08:16:42;;;;;;;5.20;1.40;;;;;;;18.46;95.85;99748.53;12190373;19;20014;-82
2023/08/08 08:20:44;;;;;;;3.03;1.20;;;;;;;18.81;90.97;99749.09;12216062;19;20011;-82
2023/08/08 08:24:46;;;;;;;4.85;1.20;;;;;;;19.14;83.11;99744.31;12213114;19;20014;-82
2023/08/08 08:28:48;;;;;;;4.90;1.30;;;;;;;19.41;80.24;99743.50;12197640;19;20011;-83
2023/08/08 08:32:50;;;;;;;5.55;1.13;;;;;;;19.56;77.74;99732.00;12223335;19;20014;-82
2023/08/08 08:36:52;;;;;;;2.67;1.03;;;;;;;19.60;75.59;99729.41;12220117;19;20015;-83
2023/08/08 08:40:55;;;;;;;5.03;0.95;;;;;;;19.69;75.09;99732.31;12194913;19;20460;-82
2023/08/08 08:44:59;;;;;;;2.70;1.00;;;;;;;19.87;73.16;99730.53;12218586;19;20010;-80
2023/08/08 08:49:02;;;;;;;3.38;1.10;;;;;;;19.92;71.61;99741.59;12209173;19;20011;-82
2023/08/08 08:53:05;;;;;;;2.05;1.17;;;;;;;19.90;68.25;99738.28;12230121;19;20018;-82
2023/08/08 08:57:07;;;;;;;3.22;1.05;;;;;;;19.93;66.22;99738.50;12220632;19;20010;-82
2023/08/08 09:01:10;;;;;;;1.88;1.00;;;;;;;19.95;68.50;99739.00;12197947;19;20014;-82
2023/08/08 09:05:13;;;;;;;3.63;1.40;;;;;;;19.93;66.99;99735.72;12221310;19;20027;-82
2023/08/08 09:09:15;;;;;;;2.47;1.15;;;;;;;20.12;67.46;99731.94;12218186;19;20019;-81
2023/08/08 09:13:17;;;;;;;3.25;1.20;;;;;;;20.18;64.95;99736.25;12236593;19;20023;-81
2023/08/08 09:17:19;;;;;;;4.03;1.20;;;;;;;20.21;65.95;99721.66;12253780;19;20021;-81
2023/08/08 09:21:27;;;;;;;3.47;1.55;;;;;;;20.27;64.77;99726.78;12262181;19;20010;-81
2023/08/08 09:25:28;;;;;;;;;;;;;;;20.30;66.11;99728.13;12243842;19;20007;-82
2023/08/08 09:29:30;;;;;;;3.67;1.20;;;;;;;20.51;64.33;99724.84;12259027;19;19914;-81
2023/08/08 09:33:32;;;;;;;4.30;1.15;;;;;;;20.56;64.34;99724.75;12260548;19;20022;-81
2023/08/08 09:37:33;;;;;;;3.13;1.17;;;;;;;20.47;61.22;99721.84;12236313;19;20014;-81
2023/08/08 09:41:36;;;;;;;4.63;1.10;;;;;;;20.52;60.56;99723.69;12261718;19;20011;-84
2023/08/08 09:45:41;;;;;;;2.35;0.90;;;;;;;20.64;61.28;99721.16;12244195;19;20006;-82
2023/08/08 09:49:44;;;;;;;2.53;1.17;;;;;;;20.88;61.37;99721.66;12212196;19;20007;-81
2023/08/08 09:53:48;;;;;;;4.07;1.27;;;;;;;20.86;58.01;99729.56;12247016;19;19999;-81
2023/08/08 09:57:51;;;;;;;2.15;1.23;;;;;;;20.52;57.63;99716.13;12229755;19;20022;-81
2023/08/08 10:01:57;;;;;;;3.80;1.23;;;;;;;20.29;59.14;99720.06;12201515;19;20014;-82
2023/08/08 10:06:01;;;;;;;5.53;1.27;;;;;;;20.31;61.63;99714.97;12220601;19;20017;-81
2023/08/08 10:10:03;;;;;;;5.35;1.40;;;;;;;20.75;59.94;99722.56;12203952;19;20006;-81
2023/08/08 10:14:05;;;;;;;2.47;1.38;;;;;;;21.16;56.69;99718.66;12219718;19;20010;-84
2023/08/08 10:18:07;;;;;;;3.95;1.00;;;;;;;21.35;55.34;99712.81;12216919;19;20031;-81
2023/08/08 10:22:09;;;;;;;6.47;2.17;;;;;;;21.61;53.87;99722.16;12205379;19;20010;-84
2023/08/08 10:26:19;;;;;;;3.72;1.48;;;;;;;21.69;52.64;99709.31;12224475;19;20010;-87
2023/08/08 10:30:20;;;;;;;3.45;1.50;;;;;;;21.74;53.71;99716.72;12220361;19;20010;-82
2023/08/08 10:34:35;;;;;;;4.27;1.30;;;;;;;21.96;54.35;99713.00;12203361;19;20010;-84
2023/08/08 10:38:46;;;;;;;3.30;1.48;;;;;;;22.34;53.42;99699.16;12216755;19;20007;-81
2023/08/08 10:42:48;;;;;;;4.38;1.55;;;;;;;22.58;52.41;99698.66;12220974;19;20033;-86
2023/08/08 10:46:52;;;;;;;2.88;1.33;;;;;;;22.51;50.76;99706.72;12194961;19;20014;-82
2023/08/08 10:50:57;;;;;;;5.20;1.70;;;;;;;22.83;50.44;99690.50;12214064;19;20007;-82
2023/08/08 10:55:01;;;;;;;2.38;1.38;;;;;;;23.04;47.46;99693.44;12204045;19;20024;-83
2023/08/08 10:59:15;;;;;;;5.40;1.23;;;;;;;22.84;46.95;99695.75;12215994;19;20353;-83
2023/08/08 11:03:18;;;;;;;3.80;1.42;;;;;;;22.95;48.58;99710.31;12214305;19;20022;-84
2023/08/08 11:07:21;;;;;;;3.25;1.20;;;;;;;23.36;47.96;99686.34;12199540;19;20036;-87
2023/08/08 11:11:23;;;;;;;2.60;1.25;;;;;;;23.47;46.83;99679.19;12219000;19;20014;-83
2023/08/08 11:15:26;;;;;;;6.03;1.35;;;;;;;23.50;45.51;99684.13;12217338;19;20009;-83
2023/08/08 11:19:30;;;;;;;2.92;1.10;;;;;;;23.61;45.95;99685.34;12192491;19;20011;-84
2023/08/08 11:23:37;;;;;;;3.30;1.50;;;;;;;23.48;45.31;99697.69;12216131;19;20014;-85
2023/08/08 11:27:39;;;;;;;3.75;1.20;;;;;;;23.36;47.70;99694.78;12218790;19;20015;-82
2023/08/08 11:31:43;;;;;;;5.18;1.48;;;;;;;23.31;45.55;99687.34;12193150;19;20019;-83
2023/08/08 11:35:46;;;;;;;5.45;1.88;;;;;;;23.53;46.35;99683.44;12209215;19;19999;-82
2023/08/08 11:39:49;;;;;;;3.33;1.55;;;;;;;23.73;46.38;99681.84;12210815;19;20021;-82
2023/08/08 11:43:51;;;;;;;5.75;1.63;;;;;;;23.37;45.87;99669.13;12190617;19;20009;-81
2023/08/08 11:47:54;;;;;;;3.95;1.60;;;;;;;23.40;46.95;99664.81;12212183;19;20121;-80
2023/08/08 11:51:56;;;;;;;3.15;1.02;;;;;;;23.55;46.38;99669.84;12214553;19;20031;-82
2023/08/08 11:55:59;;;;;;;;;;;;;;;23.76;46.55;99664.28;12190228;19;20062;-79
2023/08/08 12:00:07;;;;;;;5.78;1.63;;;;;;;23.94;46.56;99670.59;12215283;19;20396;-80
2023/08/08 12:04:13;;;;;;;4.97;1.95;;;;;;;23.61;48.53;99664.84;12203475;19;20009;-82
2023/08/08 12:08:19;;;;;;;3.47;1.40;;;;;;;23.82;48.60;99668.53;12229854;19;20007;-84
2023/08/08 12:12:21;;;;;;;2.28;1.30;;;;;;;23.67;47.02;99672.75;12236724;19;20025;-85
2023/08/08 12:16:28;;;;;;;4.13;1.50;;;;;;;23.73;45.59;99669.78;12205577;19;20516;-83
2023/08/08 12:20:32;;;;;;;2.72;1.35;;;;;;;24.15;45.37;99659.34;12230508;19;20375;-80
2023/08/08 12:24:33;;;;;;;2.83;1.40;;;;;;;24.52;46.68;99671.63;12227835;19;20478;-81
2023/08/08 12:28:35;;;;;;;4.53;1.37;;;;;;;24.71;44.51;99662.63;12206453;19;20038;-83
2023/08/08 12:32:37;;;;;;;4.38;1.45;;;;;;;25.04;44.07;99652.47;12229004;19;20359;-82
2023/08/08 12:36:40;;;;;;;;;;;;;;;25.22;39.79;99659.56;12227069;19;20014;-82
2023/08/08 12:40:42;;;;;;;3.00;1.20;;;;;;;26.25;39.60;99652.72;12206949;19;19907;-82
2023/08/08 12:44:44;;;;;;;3.42;1.10;;;;;;;26.82;37.57;99654.34;12226850;19;20002;-82
2023/08/08 12:48:47;;;;;;;3.50;1.23;;;;;;;26.74;36.83;99658.16;12224441;19;20476;-83
2023/08/08 12:52:49;;;;;;;4.10;1.40;;;;;;;25.97;37.14;99663.97;12208640;19;20014;-89
2023/08/08 12:56:51;;;;;;;;;;;;;;;25.59;38.04;99665.22;12222139;19;20013;-81
2023/08/08 13:00:53;;;;;;;6.45;1.48;;;;;;;25.79;37.70;99657.75;12226681;19;19907;-83
2023/08/08 13:04:54;;;;;;;3.20;1.60;;;;;;;25.57;37.63;99659.91;12200223;19;20003;-83
2023/08/08 13:08:57;;;;;;;3.53;1.15;;;;;;;25.37;37.88;99652.41;12225487;19;19999;-84
2023/08/08 13:12:59;;;;;;;4.10;1.52;;;;;;;24.87;38.50;99648.72;12208471;19;20002;-82
2023/08/08 13:17:01;;;;;;;3.72;1.20;;;;;;;24.18;39.40;99646.56;12215799;19;20014;-83
2023/08/08 13:21:03;;;;;;;2.97;1.55;;;;;;;23.56;40.87;99643.38;12216929;19;20011;-82
2023/08/08 13:25:07;;;;;;;3.35;1.40;;;;;;;23.63;40.40;99634.41;12193850;19;20521;-81
2023/08/08 13:29:09;;;;;;;3.00;0.90;;;;;;;23.34;40.29;99624.81;12214753;19;20011;-83
2023/08/08 13:33:11;;;;;;;3.92;1.25;;;;;;;22.73;41.11;99643.94;12216434;19;20010;-81
2023/08/08 13:37:13;;;;;;;4.40;1.30;;;;;;;22.04;42.45;99650.41;12194657;19;20007;-90
2023/08/08 13:41:14;;;;;;;5.20;1.43;;;;;;;21.74;43.05;99647.44;12213332;19;20017;-84
2023/08/08 13:45:20;;;;;;;3.13;1.40;;;;;;;21.71;43.76;99641.66;12214647;19;20022;-83
2023/08/08 13:49:26;;;;;;;4.40;1.55;;;;;;;21.57;44.84;99644.63;12198471;19;20480;-86
2023/08/08 13:53:28;;;;;;;6.70;1.13;;;;;;;22.17;44.10;99637.44;12215584;19;20010;-86
2023/08/08 13:57:30;;;;;;;3.08;1.10;;;;;;;23.01;43.36;99632.28;12224423;19;20007;-84
2023/08/08 14:01:32;;;;;;;2.47;1.35;;;;;;;24.90;40.56;99625.47;12210054;19;20022;-86
2023/08/08 14:05:34;;;;;;;3.40;0.90;;;;;;;25.13;40.63;99619.34;12212864;19;20031;-83
2023/08/08 14:09:36;;;;;;;2.85;1.45;;;;;;;24.71;41.22;99619.56;12213840;19;20252;-84
2023/08/08 14:13:39;;;;;;;4.55;1.40;;;;;;;24.31;41.11;99617.31;12194338;19;20007;-84
2023/08/08 14:17:41;;;;;;;3.63;1.20;;;;;;;23.74;41.36;99609.56;12215466;19;20006;-84
2023/08/08 14:21:43;;;;;;;2.72;1.13;;;;;;;23.47;42.17;99611.69;12216443;19;20010;-84
2023/08/08 14:25:44;;;;;;;4.43;1.53;;;;;;;23.43;42.53;99611.53;12192709;19;20006;-85
2023/08/08 14:29:46;;;;;;;2.20;1.20;;;;;;;23.55;42.51;99609.97;12210134;19;20028;-85
2023/08/08 14:33:48;;;;;;;2.83;1.20;;;;;;;23.37;43.02;99612.06;12213526;19;20007;-84
2023/08/08 14:37:50;;;;;;;2.72;1.45;;;;;;;23.17;43.11;99611.72;12190932;19;20778;-84
2023/08/08 14:41:52;;;;;;;4.70;1.10;;;;;;;22.91;43.81;99617.41;12213187;19;20427;-86
2023/08/08 14:45:55;;;;;;;5.47;1.23;;;;;;;22.25;45.08;99623.38;12214633;19;20006;-84
2023/08/08 14:49:56;;;;;;;3.67;1.40;;;;;;;21.61;47.10;99634.41;12192814;19;20044;-85
2023/08/08 14:53:58;;;;;;;4.63;1.40;;;;;;;21.09;48.57;99643.50;12215239;19;20315;-88
2023/08/08 14:58:01;;;;;;;1.80;1.25;;;;;;;20.84;50.29;99647.00;12191294;19;20610;-85
2023/08/08 15:02:03;;;;;;;2.40;1.20;;;;;;;20.65;51.53;99648.06;12213302;19;20015;-85
2023/08/08 15:06:05;;;;;;;4.22;1.20;;;;;;;20.44;52.48;99656.16;12208485;19;20014;-85
2023/08/08 15:10:07;;;;;;;3.10;1.53;;;;;;;20.12;54.33;99656.41;12197645;19;20011;-86
2023/08/08 15:14:09;;;;;;;2.17;1.15;;;;;;;20.08;55.23;99660.97;12207274;19;20007;-85
2023/08/08 15:18:11;;;;;;;3.85;1.00;;;;;;;20.07;55.29;99656.53;12209638;19;20007;-85
2023/08/08 15:22:13;;;;;;;3.50;1.23;;;;;;;20.03;56.53;99648.75;12188065;19;20066;-85
2023/08/08 15:26:20;;;;;;;2.35;1.20;;;;;;;20.10;56.49;99655.88;12202295;19;20006;-85
2023/08/08 15:30:22;;;;;;;7.85;1.30;;;;;;;20.17;56.88;99659.91;12205146;19;20429;-84
2023/08/08 15:34:24;;;;;;;3.63;0.95;;;;;;;20.12;57.82;99654.44;12189377;19;20014;-84
2023/08/08 15:38:25;;;;;;;3.90;1.27;;;;;;;20.00;58.64;99652.19;12215100;19;20003;-84
2023/08/08 15:42:27;;;;;;;3.75;1.65;;;;;;;19.86;59.66;99657.00;12218350;19;20018;-85
2023/08/08 15:46:29;;;;;;;3.40;1.42;;;;;;;19.79;59.38;99646.25;12220841;19;20010;-84
2023/08/08 15:50:31;;;;;;;3.07;1.43;;;;;;;19.71;60.29;99655.38;12237294;19;20015;-85
2023/08/08 15:54:33;;;;;;;3.13;1.50;;;;;;;19.63;60.99;99653.31;12250160;19;20018;-84
2023/08/08 15:58:35;;;;;;;3.10;1.33;;;;;;;19.67;61.09;99647.97;12221059;19;20014;-84
2023/08/08 16:02:36;;;;;;;3.13;1.20;;;;;;;19.86;60.54;99648.63;12208507;19;20018;-83
2023/08/08 16:06:38;;;;;;;3.07;1.40;;;;;;;20.06;60.24;99650.09;12207344;19;20576;-85
2023/08/08 16:10:41;;;;;;;4.95;1.45;;;;;;;20.15;59.72;99655.78;12182993;19;20252;-84
2023/08/08 16:14:43;;;;;;;2.05;0.95;;;;;;;20.24;60.79;99656.66;12206227;19;20006;-84
2023/08/08 16:18:45;;;;;;;4.53;1.70;;;;;;;20.56;60.05;99654.78;12205008;19;20014;-83
2023/08/08 16:22:48;;;;;;;4.15;1.63;;;;;;;20.82;59.13;99646.50;12185639;19;20011;-84
2023/08/08 16:26:50;;;;;;;6.55;1.35;;;;;;;20.92;58.54;99654.63;12206566;19;20018;-86
2023/08/08 16:30:52;;;;;;;2.08;1.30;;;;;;;20.79;59.90;99656.38;12208751;19;20015;-84
2023/08/08 16:34:53;;;;;;;4.17;1.40;;;;;;;20.72;60.64;99664.41;12180877;19;20010;-85
2023/08/08 16:38:55;;;;;;;4.95;1.73;;;;;;;20.79;60.27;99664.78;12201889;19;20014;-84
2023/08/08 16:43:17;;;;;;;3.03;1.65;;;;;;;20.90;58.93;99668.94;12179840;19;20010;-86
2023/08/08 16:47:19;;;;;;;5.73;1.70;;;;;;;20.77;58.47;99666.25;12207498;19;20002;-86
2023/08/08 16:51:21;;;;;;;5.07;1.73;;;;;;;20.47;59.90;99666.69;12213512;19;20018;-84
2023/08/08 16:55:23;;;;;;;3.33;1.60;;;;;;;20.26;60.23;99674.78;12194167;19;20006;-85
2023/08/08 16:59:25;;;;;;;4.63;1.63;;;;;;;20.18;61.12;99658.75;12215740;19;20038;-85
2023/08/08 17:03:27;;;;;;;7.27;1.77;;;;;;;20.12;61.13;99650.81;12216926;19;20010;-85
2023/08/08 17:07:29;;;;;;;2.90;1.30;;;;;;;20.13;61.60;99652.44;12190059;19;20019;-85
2023/08/08 17:11:32;;;;;;;3.20;1.40;;;;;;;20.19;61.91;99654.81;12219974;19;20578;-85
2023/08/08 17:15:34;;;;;;;;;;;;;;;20.14;62.72;99642.94;12211270;19;20024;-85
2023/08/08 17:19:35;;;;;;;3.60;1.60;;;;;;;20.12;63.71;99653.59;12180843;19;19907;-85
2023/08/08 17:23:38;;;;;;;10.43;3.65;;;;;;;20.13;63.96;99641.25;12208035;19;20411;-84
2023/08/08 17:27:40;;;;;;;4.17;1.90;;;;;;;20.11;64.25;99650.00;12208549;19;20014;-86
2023/08/08 17:31:42;;;;;;;5.32;1.73;;;;;;;20.04;65.43;99652.38;12189815;19;21048;-85
2023/08/08 17:35:44;;;;;;;6.20;1.97;;;;;;;19.93;66.39;99654.63;12214577;19;20046;-84
2023/08/08 17:39:46;;;;;;;5.15;1.92;;;;;;;19.79;67.83;99642.66;12214278;19;20006;-84
2023/08/08 17:43:48;;;;;;;4.65;2.00;;;;;;;19.71;67.76;99648.97;12190855;19;20007;-83
2023/08/08 17:47:50;;;;;;;5.13;2.00;;;;;;;19.56;69.18;99652.91;12210249;19;20018;-81
2023/08/08 17:51:52;;;;;;;4.53;1.83;;;;;;;19.46;70.24;99653.97;12213629;19;20469;-82
2023/08/08 17:55:54;;;;;;;4.05;1.77;;;;;;;19.36;70.63;99659.75;12188589;19;20006;-81
2023/08/08 17:59:56;;;;;;;5.05;1.83;;;;;;;19.35;71.10;99658.13;12203592;19;20027;-81
2023/08/08 18:03:58;;;;;;;4.47;2.03;;;;;;;19.32;71.76;99664.34;12200278;19;20014;-80
2023/08/08 18:08:00;;;;;;;4.50;2.65;;;;;;;19.24;73.02;99667.84;12203453;19;20382;-81
2023/08/08 18:12:03;;;;;;;6.57;2.20;;;;;;;19.20;73.01;99667.66;12202569;19;20683;-81
2023/08/08 18:16:05;;;;;;;4.78;2.08;;;;;;;19.18;73.71;99657.91;12184793;19;20006;-81
2023/08/08 18:20:09;;;;;;;6.47;2.92;;;;;;;19.13;73.58;99656.06;12204532;19;20002;-81
2023/08/08 18:24:11;;;;;;;4.50;1.70;;;;;;;19.10;73.62;99645.53;12204638;19;20373;-82
2023/08/08 18:28:13;;;;;;;5.78;2.15;;;;;;;19.06;74.65;99647.25;12184349;19;20051;-81
2023/08/08 18:32:15;;;;;;;6.47;1.80;;;;;;;19.00;74.92;99631.75;12205065;19;20043;-83
2023/08/08 18:36:17;;;;;;;3.05;1.88;;;;;;;18.95;75.32;99643.88;12203217;19;20366;-82
2023/08/08 18:40:20;;;;;;;7.20;2.20;;;;;;;18.92;76.54;99650.06;12181107;19;20000;-82
2023/08/08 18:44:22;;;;;;;6.80;2.15;;;;;;;18.88;76.36;99647.03;12204412;19;20010;-82